createdAt,value
2022-09-09T00:00:37.521Z,1.40
2022-09-09T00:03:18.077Z,1.67
2022-09-09T00:05:47.638Z,1.70
2022-09-09T00:08:21.938Z,1.88
2022-09-09T00:10:55.088Z,1.25
2022-09-09T00:13:30.349Z,1.50
2022-09-09T00:16:20.690Z,1.42
2022-09-09T00:19:07.485Z,1.40
2022-09-09T00:21:39.733Z,1.50
2022-09-09T00:24:26.473Z,1.50
2022-09-09T00:26:59.041Z,1.70
2022-09-09T00:29:52.490Z,1.37
2022-09-09T00:32:19.628Z,1.50
2022-09-09T00:34:53.675Z,1.63
2022-09-09T00:37:22.195Z,1.58
2022-09-09T00:39:49.519Z,1.48
2022-09-09T00:42:32.028Z,1.40
2022-09-09T00:45:26.299Z,1.45
2022-09-09T00:47:54.007Z,1.40
2022-09-09T00:51:01.118Z,1.30
2022-09-09T00:53:55.422Z,1.25
2022-09-09T00:56:28.770Z,1.52
2022-09-09T01:01:27.865Z,1.10
2022-09-09T01:03:56.388Z,1.30
2022-09-09T01:06:28.830Z,1.63
2022-09-09T01:09:32.634Z,1.57
2022-09-09T01:12:26.296Z,1.60
2022-09-09T01:14:57.985Z,1.45
2022-09-09T01:17:28.984Z,1.35
2022-09-09T01:20:14.012Z,1.35
2022-09-09T01:22:50.820Z,1.40
2022-09-09T01:25:30.991Z,1.45
2022-09-09T01:28:03.128Z,1.35
2022-09-09T01:30:30.038Z,1.20
2022-09-09T01:33:01.176Z,1.50
2022-09-09T01:35:42.527Z,1.30
2022-09-09T01:38:09.244Z,1.25
2022-09-09T01:40:35.832Z,1.10
2022-09-09T01:43:02.506Z,1.35
2022-09-09T01:45:29.144Z,1.50
2022-09-09T01:47:56.084Z,1.40
2022-09-09T01:50:23.425Z,1.10
2022-09-09T01:52:53.854Z,1.40
2022-09-09T01:55:26.865Z,1.60
2022-09-09T01:57:53.316Z,1.08
2022-09-09T02:00:19.896Z,1.15
2022-09-09T02:02:49.076Z,1.35
2022-09-09T02:05:32.117Z,1.42
2022-09-09T02:08:20.676Z,1.30
2022-09-09T02:11:05.282Z,1.20
2022-09-09T02:13:35.302Z,1.02
2022-09-09T02:16:13.257Z,1.33
2022-09-09T02:18:45.096Z,1.30
2022-09-09T02:21:12.793Z,1.25
2022-09-09T02:23:40.791Z,1.50
2022-09-09T02:26:08.852Z,1.17
2022-09-09T02:28:36.117Z,1.35
2022-09-09T02:31:03.148Z,1.17
2022-09-09T02:33:38.364Z,1.30
2022-09-09T02:36:07.749Z,1.30
2022-09-09T02:38:38.449Z,1.10
2022-09-09T02:41:05.079Z,1.20
2022-09-09T02:43:33.227Z,1.15
2022-09-09T02:46:31.057Z,1.42
2022-09-09T02:49:07.542Z,1.10
2022-09-09T02:51:55.946Z,1.10
2022-09-09T02:54:25.344Z,1.42
2022-09-09T02:56:55.423Z,1.00
2022-09-09T02:59:23.161Z,1.20
2022-09-09T03:01:49.718Z,1.00
2022-09-09T03:04:16.347Z,1.15
2022-09-09T03:06:42.874Z,0.98
2022-09-09T03:09:11.499Z,1.20
2022-09-09T03:11:39.347Z,0.98
2022-09-09T03:14:05.936Z,1.27
2022-09-09T03:16:34.128Z,0.95
2022-09-09T03:19:01.655Z,0.93
2022-09-09T03:21:28.225Z,1.27
2022-09-09T03:23:54.756Z,1.20
2022-09-09T03:26:21.349Z,1.10
2022-09-09T03:28:48.066Z,1.05
2022-09-09T03:31:15.611Z,1.15
2022-09-09T03:33:42.361Z,1.25
2022-09-09T03:36:09.511Z,0.93
2022-09-09T03:38:36.142Z,1.10
2022-09-09T03:41:03.126Z,0.93
2022-09-09T03:43:30.739Z,1.23
2022-09-09T03:46:00.318Z,0.88
2022-09-09T03:48:29.259Z,0.90
2022-09-09T03:51:01.636Z,1.23
2022-09-09T03:53:28.722Z,0.88
2022-09-09T03:56:00.435Z,0.80
2022-09-09T03:58:28.267Z,1.20
2022-09-09T04:00:59.817Z,1.00
2022-09-09T04:03:28.320Z,1.08
2022-09-09T04:05:57.591Z,0.90
2022-09-09T04:08:26.350Z,0.90
2022-09-09T04:10:53.615Z,1.00
2022-09-09T04:13:20.806Z,1.15
2022-09-09T04:15:57.669Z,0.82
2022-09-09T04:18:25.096Z,0.80
2022-09-09T04:20:53.367Z,0.75
2022-09-09T04:23:21.613Z,1.20
2022-09-09T04:25:53.043Z,1.27
2022-09-09T04:28:20.753Z,1.13
2022-09-09T04:30:47.769Z,1.00
2022-09-09T04:33:15.014Z,1.20
2022-09-09T04:35:49.738Z,0.88
2022-09-09T04:38:17.532Z,1.00
2022-09-09T04:40:45.174Z,0.80
2022-09-09T04:43:14.631Z,1.00
2022-09-09T04:45:42.116Z,0.93
2022-09-09T04:48:09.078Z,0.70
2022-09-09T04:50:35.694Z,1.20
2022-09-09T04:53:03.589Z,1.00
2022-09-09T04:55:31.139Z,0.90
2022-09-09T04:57:58.547Z,0.80
2022-09-09T05:00:25.868Z,0.75
2022-09-09T05:02:52.501Z,0.88
2022-09-09T05:05:19.659Z,0.90
2022-09-09T05:07:46.862Z,0.63
2022-09-09T05:10:15.084Z,1.10
2022-09-09T05:12:41.607Z,0.88
2022-09-09T05:15:08.783Z,0.70
2022-09-09T05:17:35.321Z,0.93
2022-09-09T05:20:06.605Z,0.80
2022-09-09T05:22:36.507Z,0.70
2022-09-09T05:25:03.065Z,0.80
2022-09-09T05:27:32.410Z,0.98
2022-09-09T05:29:59.103Z,0.98
2022-09-09T05:32:25.898Z,1.10
2022-09-09T05:34:53.216Z,0.82
2022-09-09T05:37:19.801Z,0.85
2022-09-09T05:39:46.481Z,1.10
2022-09-09T05:42:13.311Z,1.00
2022-09-09T05:44:39.844Z,1.00
2022-09-09T05:47:06.501Z,1.13
2022-09-09T05:49:33.180Z,1.27
2022-09-09T05:51:59.722Z,1.15
2022-09-09T05:54:26.402Z,0.98
2022-09-09T05:56:54.619Z,0.80
2022-09-09T05:59:21.683Z,1.00
2022-09-09T06:01:48.736Z,1.00
2022-09-09T06:04:15.538Z,0.90
2022-09-09T06:06:43.073Z,1.00
2022-09-09T06:09:11.217Z,0.90
2022-09-09T06:11:39.540Z,0.80
2022-09-09T06:14:06.295Z,1.00
2022-09-09T06:16:33.708Z,1.00
2022-09-09T06:19:00.777Z,1.23
2022-09-09T06:21:32.030Z,1.05
2022-09-09T06:24:01.033Z,0.90
2022-09-09T06:26:37.154Z,0.73
2022-09-09T06:29:05.027Z,0.90
2022-09-09T06:31:35.168Z,0.90
2022-09-09T06:34:02.492Z,1.10
2022-09-09T06:36:31.099Z,0.95
2022-09-09T06:38:57.649Z,4.22
2022-09-09T06:41:27.235Z,3.65
2022-09-09T06:43:53.811Z,2.92
2022-09-09T06:46:24.959Z,2.28
2022-09-09T06:48:51.641Z,2.47
2022-09-09T06:51:22.606Z,2.20
2022-09-09T06:53:51.903Z,2.30
2022-09-09T06:56:24.106Z,1.80
2022-09-09T06:58:55.549Z,1.80
2022-09-09T07:01:24.477Z,1.73
2022-09-09T07:03:53.029Z,1.90
2022-09-09T07:06:53.536Z,2.47
2022-09-09T07:09:20.248Z,1.88
2022-09-09T07:11:49.297Z,1.90
2022-09-09T07:14:16.351Z,1.70
2022-09-09T07:16:43.199Z,1.90
2022-09-09T07:19:09.874Z,1.98
2022-09-09T07:21:36.445Z,1.98
2022-09-09T07:24:03.465Z,1.73
2022-09-09T07:26:31.636Z,2.15
2022-09-09T07:28:58.550Z,2.00
2022-09-09T07:31:28.126Z,1.65
2022-09-09T07:33:54.991Z,1.83
2022-09-09T07:36:23.120Z,1.83
2022-09-09T07:38:55.514Z,1.48
2022-09-09T07:41:28.413Z,1.60
2022-09-09T07:43:55.493Z,1.63
2022-09-09T07:46:24.216Z,2.20
2022-09-09T07:48:53.425Z,1.88
2022-09-09T07:51:29.827Z,1.80
2022-09-09T07:54:03.045Z,1.60
2022-09-09T07:56:30.589Z,1.95
2022-09-09T07:58:58.004Z,1.70
2022-09-09T08:01:26.135Z,1.35
2022-09-09T08:04:08.100Z,1.55
2022-09-09T08:06:38.538Z,1.35
2022-09-09T08:09:05.384Z,1.42
2022-09-09T08:11:36.611Z,1.33
2022-09-09T08:14:05.286Z,1.40
2022-09-09T08:16:37.505Z,1.23
2022-09-09T08:19:04.596Z,1.75
2022-09-09T08:21:32.707Z,1.30
2022-09-09T08:24:00.691Z,1.15
2022-09-09T08:26:35.427Z,1.30
2022-09-09T08:29:04.218Z,1.33
2022-09-09T08:31:35.385Z,1.10
2022-09-09T08:34:05.542Z,1.30
2022-09-09T08:36:35.597Z,1.20
2022-09-09T08:39:02.708Z,1.27
2022-09-09T08:41:47.098Z,1.40
2022-09-09T08:44:22.776Z,1.30
2022-09-09T08:47:01.131Z,1.60
2022-09-09T08:49:47.649Z,1.15
2022-09-09T08:52:19.003Z,1.00
2022-09-09T08:54:52.277Z,1.10
2022-09-09T08:57:29.600Z,0.95
2022-09-09T08:59:57.672Z,1.05
2022-09-09T09:02:37.515Z,1.02
2022-09-09T09:05:17.206Z,1.05
2022-09-09T09:07:46.448Z,0.93
2022-09-09T09:10:42.585Z,0.90
2022-09-09T09:13:25.124Z,1.15
2022-09-09T09:15:56.397Z,0.90
2022-09-09T09:18:23.014Z,0.93
2022-09-09T09:21:05.995Z,1.10
2022-09-09T09:23:48.579Z,1.20
2022-09-09T09:26:15.782Z,1.10
2022-09-09T09:28:42.357Z,1.13
2022-09-09T09:31:12.091Z,0.80
2022-09-09T09:33:41.852Z,0.93
2022-09-09T09:36:09.505Z,0.85
2022-09-09T09:41:37.559Z,1.05
2022-09-09T09:44:04.433Z,0.88
2022-09-09T09:46:31.100Z,0.85
2022-09-09T09:48:59.868Z,0.88
2022-09-09T09:51:27.946Z,0.70
2022-09-09T09:53:54.896Z,1.05
2022-09-09T09:56:31.554Z,0.88
2022-09-09T09:58:59.713Z,0.77
2022-09-09T10:01:32.380Z,1.05
2022-09-09T10:04:00.773Z,1.23
2022-09-09T10:06:35.741Z,0.98
2022-09-09T10:09:03.859Z,1.10
2022-09-09T10:11:47.422Z,1.13
2022-09-09T10:16:55.300Z,0.82
2022-09-09T10:19:37.836Z,0.93
2022-09-09T10:22:28.644Z,0.98
2022-09-09T10:25:07.451Z,0.85
2022-09-09T10:27:47.972Z,1.10
2022-09-09T10:30:25.240Z,0.98
2022-09-09T10:33:03.852Z,0.98
2022-09-09T10:35:53.112Z,0.93
2022-09-09T10:38:29.759Z,0.95
2022-09-09T10:40:58.892Z,1.00
2022-09-09T10:44:03.168Z,1.08
2022-09-09T10:46:41.782Z,0.85
2022-09-09T10:49:30.319Z,1.05
2022-09-09T10:52:06.538Z,0.80
2022-09-09T10:54:52.683Z,0.93
2022-09-09T10:57:29.779Z,0.80
2022-09-09T11:00:00.992Z,0.90
2022-09-09T11:02:29.530Z,0.80
2022-09-09T11:05:04.079Z,0.90
2022-09-09T11:07:55.031Z,1.10
2022-09-09T11:10:31.423Z,0.70
2022-09-09T11:13:02.303Z,0.80
2022-09-09T11:15:43.102Z,0.95
2022-09-09T11:18:18.782Z,1.00
2022-09-09T11:20:45.994Z,1.10
2022-09-09T11:23:35.341Z,0.90
2022-09-09T11:26:05.493Z,1.08
2022-09-09T11:28:48.163Z,0.88
2022-09-09T11:31:20.417Z,0.93
2022-09-09T11:33:58.416Z,0.90
2022-09-09T11:36:28.813Z,0.93
2022-09-09T11:39:08.330Z,0.80
2022-09-09T11:41:38.422Z,0.93
2022-09-09T11:44:19.456Z,0.90
2022-09-09T11:46:47.437Z,1.05
2022-09-09T11:49:29.061Z,0.90
2022-09-09T11:51:55.893Z,0.98
2022-09-09T11:54:30.372Z,1.00
2022-09-09T11:56:57.789Z,0.90
2022-09-09T11:59:32.547Z,0.65
2022-09-09T12:02:04.151Z,0.75
2022-09-09T12:04:34.411Z,0.80
2022-09-09T12:07:04.448Z,0.90
2022-09-09T12:09:52.790Z,0.70
2022-09-09T12:12:23.221Z,0.75
2022-09-09T12:15:00.309Z,0.80
2022-09-09T12:17:29.865Z,1.20
2022-09-09T12:20:32.410Z,0.90
2022-09-09T12:23:22.240Z,0.73
2022-09-09T12:26:09.907Z,0.77
2022-09-09T12:28:45.517Z,0.70
2022-09-09T12:31:20.171Z,1.10
2022-09-09T12:33:48.463Z,0.80
2022-09-09T12:36:29.410Z,0.82
2022-09-09T12:38:57.927Z,1.05
2022-09-09T12:41:27.749Z,0.98
2022-09-09T12:44:09.816Z,1.33
2022-09-09T12:46:44.960Z,1.08
2022-09-09T12:49:37.507Z,1.00
2022-09-09T12:52:06.625Z,0.82
2022-09-09T12:54:37.124Z,1.10
2022-09-09T12:57:04.723Z,1.10
2022-09-09T12:59:40.301Z,1.02
2022-09-09T13:02:20.279Z,1.27
2022-09-09T13:04:47.904Z,0.90
2022-09-09T13:07:16.629Z,0.90
2022-09-09T13:09:44.285Z,0.80
2022-09-09T13:12:15.666Z,1.30
2022-09-09T13:14:44.503Z,0.95
2022-09-09T13:17:22.925Z,0.75
2022-09-09T13:19:53.747Z,1.05
2022-09-09T13:22:26.159Z,1.30
2022-09-09T13:25:03.444Z,1.30
2022-09-09T13:27:35.309Z,1.13
2022-09-09T13:30:03.070Z,0.95
2022-09-09T13:32:29.788Z,1.00
2022-09-09T13:35:02.484Z,1.02
2022-09-09T13:37:37.143Z,0.77
2022-09-09T13:40:06.849Z,1.00
2022-09-09T13:42:37.668Z,0.95
2022-09-09T13:45:05.519Z,1.10
2022-09-09T13:47:36.556Z,0.98
2022-09-09T13:50:26.791Z,0.90
2022-09-09T13:52:55.219Z,1.00
2022-09-09T13:55:23.726Z,1.00
2022-09-09T13:57:59.098Z,0.90
2022-09-09T14:00:26.215Z,1.15
2022-09-09T14:02:53.135Z,0.90
2022-09-09T14:05:20.021Z,1.23
2022-09-09T14:07:50.079Z,1.10
2022-09-09T14:10:19.138Z,0.73
2022-09-09T14:12:45.695Z,1.02
2022-09-09T14:15:12.859Z,0.80
2022-09-09T14:17:39.906Z,0.70
2022-09-09T14:20:10.233Z,0.80
2022-09-09T14:22:37.595Z,0.77
2022-09-09T14:25:04.545Z,0.90
2022-09-09T14:27:31.197Z,0.63
2022-09-09T14:29:58.748Z,0.85
2022-09-09T14:32:25.292Z,1.10
2022-09-09T14:34:51.847Z,0.82
2022-09-09T14:37:19.063Z,0.90
2022-09-09T14:39:45.669Z,0.90
2022-09-09T14:42:12.292Z,0.88
2022-09-09T14:44:39.392Z,0.68
2022-09-09T14:47:06.674Z,0.60
2022-09-09T14:49:33.243Z,0.70
2022-09-09T14:51:59.833Z,0.80
2022-09-09T14:54:26.655Z,0.90
2022-09-09T14:56:53.216Z,1.00
2022-09-09T14:59:19.739Z,1.15
2022-09-09T15:01:46.333Z,0.60
2022-09-09T15:04:13.923Z,0.88
2022-09-09T15:06:40.984Z,0.80
2022-09-09T15:09:07.534Z,0.73
2022-09-09T15:11:38.792Z,0.75
2022-09-09T15:14:06.558Z,0.70
2022-09-09T15:16:33.368Z,0.88
2022-09-09T15:19:01.211Z,0.88
2022-09-09T15:21:30.008Z,0.70
2022-09-09T15:23:57.264Z,0.80
2022-09-09T15:26:24.147Z,0.60
2022-09-09T15:28:51.763Z,0.80
2022-09-09T15:31:19.924Z,0.73
2022-09-09T15:33:50.638Z,0.68
2022-09-09T15:36:22.894Z,0.65
2022-09-09T15:38:50.287Z,0.80
2022-09-09T15:41:18.687Z,0.63
2022-09-09T15:43:50.938Z,0.85
2022-09-09T15:46:17.637Z,0.70
2022-09-09T15:48:46.672Z,0.80
2022-09-09T15:51:39.983Z,0.90
2022-09-09T15:54:01.953Z,0.60
2022-09-09T15:56:31.436Z,0.63
2022-09-09T15:58:58.608Z,0.43
2022-09-09T16:01:25.727Z,0.63
2022-09-09T16:03:52.745Z,0.70
2022-09-09T16:06:22.405Z,0.60
2022-09-09T16:08:51.247Z,0.60
2022-09-09T16:11:20.941Z,0.52
2022-09-09T16:13:51.187Z,0.70
2022-09-09T16:16:20.655Z,0.50
2022-09-09T16:18:48.941Z,0.50
2022-09-09T16:21:21.440Z,0.43
2022-09-09T16:23:50.343Z,0.53
2022-09-09T16:26:17.750Z,0.30
2022-09-09T16:28:44.726Z,0.50
2022-09-09T16:31:19.891Z,0.60
2022-09-09T16:33:47.275Z,0.70
2022-09-09T16:36:16.517Z,0.65
2022-09-09T16:38:43.654Z,0.52
2022-09-09T16:41:11.484Z,0.57
2022-09-09T16:43:39.020Z,0.52
2022-09-09T16:46:17.540Z,0.57
2022-09-09T16:48:45.326Z,0.50
2022-09-09T16:51:20.899Z,0.60
2022-09-09T16:53:47.548Z,0.63
2022-09-09T16:56:16.556Z,0.40
2022-09-09T16:58:46.825Z,0.52
2022-09-09T17:01:15.413Z,0.35
2022-09-09T17:03:42.600Z,0.40
2022-09-09T17:06:13.536Z,0.68
2022-09-09T17:08:42.367Z,0.60
2022-09-09T17:11:17.400Z,0.50
2022-09-09T17:13:44.312Z,0.40
2022-09-09T17:16:11.804Z,0.55
2022-09-09T17:18:38.863Z,0.70
2022-09-09T17:21:07.716Z,0.40
2022-09-09T17:23:38.796Z,0.40
2022-09-09T17:26:08.635Z,0.50
2022-09-09T17:28:39.492Z,0.70
2022-09-09T17:31:10.918Z,0.60
2022-09-09T17:33:39.897Z,0.60
2022-09-09T17:36:12.379Z,0.55
2022-09-09T17:38:39.661Z,0.50
2022-09-09T17:41:19.314Z,0.50
2022-09-09T17:43:46.369Z,0.50
2022-09-09T17:46:23.810Z,0.60
2022-09-09T17:48:53.788Z,0.60
2022-09-09T17:51:25.289Z,0.50
2022-09-09T17:53:52.909Z,0.47
2022-09-09T17:56:21.075Z,0.50
2022-09-09T17:58:49.299Z,0.52
2022-09-09T18:01:24.030Z,0.55
2022-09-09T18:03:51.819Z,0.47
2022-09-09T18:06:24.130Z,0.43
2022-09-09T18:08:53.030Z,0.50
2022-09-09T18:11:21.247Z,0.40
2022-09-09T18:13:51.907Z,0.50
2022-09-09T18:16:18.745Z,0.50
2022-09-09T18:18:46.203Z,0.75
2022-09-09T18:21:13.286Z,0.40
2022-09-09T18:23:42.916Z,0.60
2022-09-09T18:26:28.256Z,0.60
2022-09-09T18:28:59.546Z,0.60
2022-09-09T18:31:28.771Z,0.55
2022-09-09T18:33:57.284Z,0.40
2022-09-09T18:36:27.508Z,0.43
2022-09-09T18:38:56.695Z,0.50
2022-09-09T18:41:31.283Z,0.40
2022-09-09T18:44:01.444Z,0.82
2022-09-09T18:46:30.153Z,0.60
2022-09-09T18:48:57.365Z,0.60
2022-09-09T18:51:26.527Z,0.40
2022-09-09T18:53:55.200Z,0.50
2022-09-09T18:56:22.150Z,0.50
2022-09-09T18:58:56.178Z,0.50
2022-09-09T19:01:23.227Z,0.32
2022-09-09T19:03:50.093Z,0.52
2022-09-09T19:06:19.588Z,0.40
2022-09-09T19:08:50.052Z,0.40
2022-09-09T19:11:22.355Z,0.43
2022-09-09T19:13:53.160Z,0.50
2022-09-09T19:16:21.027Z,0.60
2022-09-09T19:18:48.294Z,0.35
2022-09-09T19:21:23.135Z,0.50
2022-09-09T19:23:59.993Z,0.50
2022-09-09T19:26:32.164Z,0.60
2022-09-09T19:29:02.747Z,0.52
2022-09-09T19:31:30.395Z,0.50
2022-09-09T19:33:57.513Z,0.50
2022-09-09T19:36:25.473Z,0.45
2022-09-09T19:38:54.069Z,0.43
2022-09-09T19:41:24.691Z,0.60
2022-09-09T19:43:52.274Z,0.40
2022-09-09T19:46:19.465Z,0.45
2022-09-09T19:48:46.853Z,0.52
2022-09-09T19:51:15.588Z,0.50
2022-09-09T19:53:44.671Z,0.32
2022-09-09T19:56:12.115Z,0.43
2022-09-09T19:58:40.079Z,0.40
2022-09-09T20:01:14.220Z,0.55
2022-09-09T20:03:42.662Z,0.40
2022-09-09T20:06:11.075Z,0.50
2022-09-09T20:08:38.784Z,0.40
2022-09-09T20:11:06.655Z,0.40
2022-09-09T20:13:37.468Z,0.50
2022-09-09T20:16:07.135Z,0.40
2022-09-09T20:18:36.655Z,0.43
2022-09-09T20:21:08.166Z,0.35
2022-09-09T20:23:34.747Z,0.73
2022-09-09T20:26:05.215Z,0.50
2022-09-09T20:28:31.752Z,0.60
2022-09-09T20:31:13.937Z,0.50
2022-09-09T20:33:41.532Z,0.43
2022-09-09T20:36:16.530Z,0.60
2022-09-09T20:38:48.246Z,0.50
2022-09-09T20:41:18.518Z,0.50
2022-09-09T20:43:58.145Z,0.50
2022-09-09T20:46:30.532Z,0.60
2022-09-09T20:49:02.651Z,0.40
2022-09-09T20:51:32.854Z,0.45
2022-09-09T20:54:03.846Z,0.40
2022-09-09T20:56:34.272Z,0.40
2022-09-09T20:59:01.527Z,0.63
2022-09-09T21:01:28.288Z,0.50
2022-09-09T21:03:55.517Z,0.50
2022-09-09T21:06:22.784Z,0.60
2022-09-09T21:08:49.696Z,0.50
2022-09-09T21:11:17.557Z,0.47
2022-09-09T21:13:44.307Z,0.63
2022-09-09T21:16:14.927Z,0.40
2022-09-09T21:18:44.353Z,0.52
2022-09-09T21:21:11.196Z,0.60
2022-09-09T21:23:37.835Z,0.70
2022-09-09T21:26:04.755Z,0.60
2022-09-09T21:28:31.618Z,0.32
2022-09-09T21:30:58.525Z,0.45
2022-09-09T21:33:28.219Z,0.70
2022-09-09T21:36:03.544Z,0.57
2022-09-09T21:38:31.177Z,0.63
2022-09-09T21:40:57.817Z,0.65
2022-09-09T21:43:24.349Z,0.50
2022-09-09T21:45:51.011Z,0.60
2022-09-09T21:48:21.275Z,0.40
2022-09-09T21:50:48.140Z,0.50
2022-09-09T21:53:18.161Z,0.45
2022-09-09T21:55:46.510Z,0.52
2022-09-09T21:58:14.292Z,0.52
2022-09-09T22:00:45.804Z,0.57
2022-09-09T22:03:13.890Z,0.40
2022-09-09T22:05:41.883Z,0.52
2022-09-09T22:08:10.078Z,0.60
2022-09-09T22:10:41.383Z,0.52
2022-09-09T22:13:08.519Z,0.50
2022-09-09T22:15:36.415Z,0.50
2022-09-09T22:18:04.421Z,0.50
2022-09-09T22:20:40.345Z,0.50
2022-09-09T22:23:06.944Z,0.40
2022-09-09T22:25:35.285Z,0.70
2022-09-09T22:28:03.300Z,0.60
2022-09-09T22:30:29.893Z,0.60
2022-09-09T22:32:57.248Z,0.55
2022-09-09T22:35:24.185Z,0.47
2022-09-09T22:37:51.304Z,0.57
2022-09-09T22:40:17.870Z,0.52
2022-09-09T22:42:44.400Z,0.60
2022-09-09T22:45:11.760Z,0.88
2022-09-09T22:47:40.653Z,0.65
2022-09-09T22:50:07.608Z,0.55
2022-09-09T22:52:34.147Z,0.60
2022-09-09T22:55:01.155Z,0.60
2022-09-09T22:57:27.752Z,0.50
2022-09-09T22:59:54.297Z,0.40
2022-09-09T23:02:21.759Z,0.70
2022-09-09T23:04:48.747Z,0.60
2022-09-09T23:07:19.796Z,0.50
2022-09-09T23:09:47.651Z,0.60
2022-09-09T23:12:14.889Z,0.73
2022-09-09T23:14:41.496Z,0.70
2022-09-09T23:17:08.807Z,0.60
2022-09-09T23:19:36.201Z,0.65
2022-09-09T23:22:03.055Z,0.43
2022-09-09T23:24:29.618Z,0.57
2022-09-09T23:26:56.169Z,0.60
2022-09-09T23:29:22.746Z,0.60
2022-09-09T23:31:49.267Z,0.73
2022-09-09T23:34:15.903Z,0.43
2022-09-09T23:36:42.698Z,0.50
2022-09-09T23:39:10.787Z,0.65
2022-09-09T23:41:37.934Z,0.40
2022-09-09T23:44:05.200Z,0.60
2022-09-09T23:46:32.634Z,0.60
2022-09-09T23:49:00.075Z,0.68
2022-09-09T23:51:30.561Z,0.40
2022-09-09T23:53:58.751Z,0.45
2022-09-09T23:56:27.600Z,0.60
2022-09-09T23:58:54.924Z,0.75
